createdAt,value
2023-05-18T00:00:26.002Z,25.00
2023-05-18T00:01:26.034Z,25.00
2023-05-18T00:02:26.137Z,25.00
2023-05-18T00:03:26.277Z,0.00
2023-05-18T00:04:26.162Z,0.00
2023-05-18T00:05:26.087Z,0.00
2023-05-18T00:06:26.078Z,0.00
2023-05-18T00:07:26.083Z,0.00
2023-05-18T00:08:26.080Z,0.00
2023-05-18T00:09:26.055Z,0.00
2023-05-18T00:10:26.093Z,0.00
2023-05-18T00:11:26.029Z,18.09
2023-05-18T00:12:26.040Z,25.00
2023-05-18T00:13:26.062Z,26.35
2023-05-18T00:14:26.012Z,25.00
2023-05-18T00:15:26.005Z,24.99
2023-05-18T00:16:26.026Z,26.79
2023-05-18T00:17:26.046Z,26.02
2023-05-18T00:18:26.003Z,25.65
2023-05-18T00:19:26.025Z,25.00
2023-05-18T00:20:26.004Z,25.64
2023-05-18T00:21:25.978Z,25.95
2023-05-18T00:22:25.980Z,25.04
2023-05-18T00:23:25.984Z,25.00
2023-05-18T00:24:25.983Z,25.00
2023-05-18T00:25:25.984Z,26.73
2023-05-18T00:26:25.986Z,25.00
2023-05-18T00:27:25.966Z,25.42
2023-05-18T00:28:25.969Z,25.38
2023-05-18T00:29:25.991Z,25.25
2023-05-18T00:30:25.956Z,26.26
2023-05-18T00:31:26.015Z,26.09
2023-05-18T00:32:25.980Z,26.04
2023-05-18T00:33:25.948Z,26.33
2023-05-18T00:34:25.954Z,25.99
2023-05-18T00:35:25.964Z,26.75
2023-05-18T00:36:25.982Z,25.00
2023-05-18T00:37:25.985Z,26.02
2023-05-18T00:38:25.991Z,26.35
2023-05-18T00:39:25.996Z,26.48
2023-05-18T00:40:26.020Z,25.19
2023-05-18T00:41:25.986Z,26.39
2023-05-18T00:42:25.993Z,25.80
2023-05-18T00:43:25.984Z,25.33
2023-05-18T00:44:25.982Z,25.00
2023-05-18T00:45:26.000Z,26.19
2023-05-18T00:46:25.996Z,25.78
2023-05-18T00:47:25.958Z,26.59
2023-05-18T00:48:25.961Z,25.26
2023-05-18T00:49:25.953Z,26.60
2023-05-18T00:50:25.943Z,25.34
2023-05-18T00:51:25.942Z,26.28
2023-05-18T00:52:25.934Z,25.60
2023-05-18T00:53:25.932Z,25.25
2023-05-18T00:54:25.930Z,26.77
2023-05-18T00:55:25.931Z,27.54
2023-05-18T00:56:25.937Z,27.91
2023-05-18T00:57:25.927Z,26.03
2023-05-18T00:58:25.941Z,27.73
2023-05-18T00:59:25.936Z,25.90
2023-05-18T01:00:25.922Z,25.39
2023-05-18T01:01:25.990Z,26.84
2023-05-18T01:02:25.972Z,27.47
2023-05-18T01:03:25.947Z,25.27
2023-05-18T01:04:25.922Z,25.00
2023-05-18T01:05:25.910Z,25.22
2023-05-18T01:06:25.903Z,25.51
2023-05-18T01:07:25.901Z,25.78
2023-05-18T01:08:25.901Z,25.77
2023-05-18T01:09:25.900Z,26.48
2023-05-18T01:10:25.891Z,26.24
2023-05-18T01:11:25.915Z,26.51
2023-05-18T01:12:25.887Z,25.30
2023-05-18T01:13:25.889Z,26.72
2023-05-18T01:14:26.311Z,26.92
2023-05-18T01:15:25.943Z,26.60
2023-05-18T01:16:25.979Z,28.13
2023-05-18T01:17:26.036Z,26.97
2023-05-18T01:18:25.923Z,26.45
2023-05-18T01:19:25.922Z,27.39
2023-05-18T01:20:25.924Z,26.44
2023-05-18T01:21:25.912Z,28.10
2023-05-18T01:22:25.904Z,26.38
2023-05-18T01:23:25.908Z,26.25
2023-05-18T01:24:25.978Z,25.48
2023-05-18T01:25:25.902Z,26.49
2023-05-18T01:26:25.905Z,25.40
2023-05-18T01:27:25.898Z,27.97
2023-05-18T01:28:25.897Z,28.28
2023-05-18T01:29:25.908Z,26.18
2023-05-18T01:30:25.908Z,26.67
2023-05-18T01:31:25.956Z,27.04
2023-05-18T01:32:25.956Z,25.81
2023-05-18T01:33:25.933Z,27.87
2023-05-18T01:34:25.902Z,27.85
2023-05-18T01:35:25.895Z,25.79
2023-05-18T01:36:25.931Z,26.03
2023-05-18T01:37:25.899Z,26.79
2023-05-18T01:38:25.893Z,26.72
2023-05-18T01:39:25.893Z,28.10
2023-05-18T01:40:25.901Z,26.27
2023-05-18T01:41:25.930Z,25.00
2023-05-18T01:42:25.911Z,27.34
2023-05-18T01:43:25.895Z,25.00
2023-05-18T01:44:25.890Z,25.34
2023-05-18T01:45:25.887Z,25.51
2023-05-18T01:46:25.907Z,27.10
2023-05-18T01:47:25.936Z,26.67
2023-05-18T01:48:25.873Z,27.22
2023-05-18T01:49:25.895Z,27.64
2023-05-18T01:50:25.866Z,28.02
2023-05-18T01:51:25.858Z,28.21
2023-05-18T01:52:25.876Z,28.15
2023-05-18T01:53:25.857Z,27.15
2023-05-18T01:54:25.860Z,26.29
2023-05-18T01:55:25.855Z,26.34
2023-05-18T01:56:25.848Z,28.27
2023-05-18T01:57:25.916Z,26.18
2023-05-18T01:58:25.857Z,26.59
2023-05-18T01:59:25.851Z,26.41
2023-05-18T02:00:25.884Z,26.14
2023-05-18T02:01:25.887Z,26.04
2023-05-18T02:02:25.953Z,25.44
2023-05-18T02:03:25.988Z,26.46
2023-05-18T02:04:25.856Z,25.49
2023-05-18T02:05:25.889Z,26.88
2023-05-18T02:06:25.852Z,26.94
2023-05-18T02:07:25.853Z,25.50
2023-05-18T02:08:25.844Z,27.26
2023-05-18T02:09:25.847Z,26.55
2023-05-18T02:10:25.841Z,25.00
2023-05-18T02:11:25.839Z,28.49
2023-05-18T02:12:25.833Z,26.12
2023-05-18T02:13:25.832Z,27.57
2023-05-18T02:14:25.835Z,27.29
2023-05-18T02:15:25.827Z,26.99
2023-05-18T02:16:25.885Z,26.80
2023-05-18T02:17:25.880Z,28.46
2023-05-18T02:18:25.826Z,28.18
2023-05-18T02:19:25.922Z,26.66
2023-05-18T02:20:26.591Z,27.84
2023-05-18T02:21:25.964Z,28.11
2023-05-18T02:22:25.891Z,27.62
2023-05-18T02:23:25.897Z,26.43
2023-05-18T02:24:25.886Z,26.92
2023-05-18T02:25:25.903Z,25.83
2023-05-18T02:26:25.882Z,25.00
2023-05-18T02:27:25.892Z,27.57
2023-05-18T02:28:25.878Z,29.02
2023-05-18T02:29:25.897Z,27.43
2023-05-18T02:30:25.895Z,27.73
2023-05-18T02:31:25.921Z,27.54
2023-05-18T02:32:25.924Z,26.59
2023-05-18T02:33:25.892Z,27.14
2023-05-18T02:34:25.900Z,25.50
2023-05-18T02:35:25.902Z,28.63
2023-05-18T02:36:25.919Z,27.14
2023-05-18T02:37:25.935Z,26.15
2023-05-18T02:38:25.911Z,27.95
2023-05-18T02:39:25.928Z,28.18
2023-05-18T02:40:25.917Z,27.32
2023-05-18T02:41:25.919Z,28.93
2023-05-18T02:42:25.926Z,27.47
2023-05-18T02:43:25.932Z,29.22
2023-05-18T02:44:25.928Z,28.32
2023-05-18T02:45:25.932Z,28.82
2023-05-18T02:46:26.094Z,28.24
2023-05-18T02:47:25.951Z,28.63
2023-05-18T02:48:25.942Z,28.12
2023-05-18T02:49:25.939Z,27.88
2023-05-18T02:50:25.936Z,25.59
2023-05-18T02:51:25.948Z,26.52
2023-05-18T02:52:25.964Z,27.99
2023-05-18T02:53:25.967Z,26.21
2023-05-18T02:54:25.946Z,27.83
2023-05-18T02:55:25.948Z,28.74
2023-05-18T02:56:25.966Z,28.98
2023-05-18T02:57:25.950Z,27.46
2023-05-18T02:58:25.957Z,26.49
2023-05-18T02:59:25.971Z,26.60
2023-05-18T03:00:25.973Z,26.83
2023-05-18T03:01:26.082Z,28.25
2023-05-18T03:02:26.022Z,27.11
2023-05-18T03:03:26.068Z,28.06
2023-05-18T03:04:26.277Z,26.25
2023-05-18T03:05:25.976Z,25.87
2023-05-18T03:06:25.982Z,26.07
2023-05-18T03:07:25.985Z,28.63
2023-05-18T03:08:25.988Z,27.11
2023-05-18T03:09:26.018Z,27.04
2023-05-18T03:10:25.984Z,27.79
2023-05-18T03:11:25.988Z,25.87
2023-05-18T03:12:25.989Z,26.76
2023-05-18T03:13:25.992Z,26.89
2023-05-18T03:14:26.006Z,28.70
2023-05-18T03:15:26.000Z,28.42
2023-05-18T03:16:26.086Z,26.43
2023-05-18T03:17:26.009Z,27.03
2023-05-18T03:18:26.042Z,27.59
2023-05-18T03:19:26.028Z,27.33
2023-05-18T03:20:25.986Z,28.22
2023-05-18T03:21:25.990Z,29.90
2023-05-18T03:22:25.998Z,30.26
2023-05-18T03:23:26.013Z,28.37
2023-05-18T03:24:25.988Z,28.25
2023-05-18T03:25:26.028Z,28.67
2023-05-18T03:26:25.996Z,26.49
2023-05-18T03:27:26.004Z,28.45
2023-05-18T03:28:26.002Z,27.91
2023-05-18T03:29:26.022Z,27.93
2023-05-18T03:30:26.012Z,27.68
2023-05-18T03:31:26.064Z,25.51
2023-05-18T03:32:26.124Z,25.73
2023-05-18T03:33:26.012Z,26.21
2023-05-18T03:34:26.025Z,25.82
2023-05-18T03:35:26.002Z,25.66
2023-05-18T03:36:26.000Z,27.28
2023-05-18T03:37:25.999Z,26.38
2023-05-18T03:38:25.986Z,25.00
2023-05-18T03:39:25.978Z,27.73
2023-05-18T03:40:25.996Z,27.02
2023-05-18T03:41:26.015Z,25.38
2023-05-18T03:42:26.012Z,26.75
2023-05-18T03:43:26.039Z,28.25
2023-05-18T03:44:26.038Z,27.61
2023-05-18T03:45:25.977Z,27.69
2023-05-18T03:46:25.993Z,28.25
2023-05-18T03:47:25.974Z,27.36
2023-05-18T03:48:25.965Z,26.29
2023-05-18T03:49:25.966Z,26.08
2023-05-18T03:50:25.982Z,27.07
2023-05-18T03:51:25.973Z,27.15
2023-05-18T03:52:25.980Z,27.76
2023-05-18T03:53:25.978Z,25.96
2023-05-18T03:54:26.009Z,27.24
2023-05-18T03:55:26.042Z,27.65
2023-05-18T03:56:26.054Z,26.23
2023-05-18T03:57:26.094Z,28.33
2023-05-18T03:58:26.103Z,28.31
2023-05-18T03:59:26.181Z,27.60
2023-05-18T04:00:26.164Z,27.87
2023-05-18T04:01:26.203Z,27.83
2023-05-18T04:02:26.473Z,27.98
2023-05-18T04:03:26.416Z,26.65
2023-05-18T04:04:26.378Z,27.07
2023-05-18T04:05:26.307Z,26.86
2023-05-18T04:06:26.308Z,26.61
2023-05-18T04:07:26.344Z,27.08
2023-05-18T04:08:26.378Z,26.74
2023-05-18T04:09:26.384Z,25.92
2023-05-18T04:10:26.414Z,28.42
2023-05-18T04:11:26.439Z,26.95
2023-05-18T04:12:26.466Z,25.14
2023-05-18T04:13:26.527Z,27.13
2023-05-18T04:14:26.548Z,25.84
2023-05-18T04:15:26.536Z,25.43
2023-05-18T04:16:26.573Z,26.89
2023-05-18T04:17:26.604Z,26.27
2023-05-18T04:18:26.559Z,26.14
2023-05-18T04:19:26.606Z,27.81
2023-05-18T04:20:26.585Z,26.69
2023-05-18T04:21:26.586Z,27.76
2023-05-18T04:22:26.670Z,26.76
2023-05-18T04:23:26.655Z,27.22
2023-05-18T04:24:26.704Z,27.50
2023-05-18T04:25:26.711Z,26.70
2023-05-18T04:26:26.732Z,28.40
2023-05-18T04:27:26.756Z,27.60
2023-05-18T04:28:26.784Z,26.60
2023-05-18T04:29:26.870Z,26.55
2023-05-18T04:30:26.851Z,26.08
2023-05-18T04:31:26.923Z,26.22
2023-05-18T04:32:27.056Z,27.44
2023-05-18T04:33:26.993Z,26.07
2023-05-18T04:34:27.031Z,27.69
2023-05-18T04:35:27.089Z,26.33
2023-05-18T04:36:27.133Z,26.40
2023-05-18T04:37:27.175Z,26.29
2023-05-18T04:38:27.230Z,25.52
2023-05-18T04:39:27.254Z,26.32
2023-05-18T04:40:27.309Z,26.40
2023-05-18T04:41:27.367Z,25.95
2023-05-18T04:42:27.428Z,26.36
2023-05-18T04:43:27.466Z,25.71
2023-05-18T04:44:27.554Z,26.26
2023-05-18T04:45:27.599Z,25.00
2023-05-18T04:46:27.651Z,25.69
2023-05-18T04:47:27.685Z,27.26
2023-05-18T04:48:27.726Z,27.24
2023-05-18T04:49:27.778Z,26.93
2023-05-18T04:50:27.832Z,28.01
2023-05-18T04:51:27.887Z,27.21
2023-05-18T04:52:27.934Z,26.22
2023-05-18T04:53:27.990Z,25.82
2023-05-18T04:54:28.055Z,25.71
2023-05-18T04:55:28.948Z,25.48
2023-05-18T04:56:28.183Z,27.23
2023-05-18T04:57:28.238Z,26.75
2023-05-18T04:58:30.391Z,27.80
2023-05-18T04:59:28.283Z,28.18
2023-05-18T05:00:28.277Z,27.88
2023-05-18T05:01:28.310Z,28.22
2023-05-18T05:02:28.324Z,27.90
2023-05-18T05:03:28.355Z,26.43
2023-05-18T05:04:28.233Z,26.01
2023-05-18T05:05:28.238Z,26.57
2023-05-18T05:06:28.208Z,27.21
2023-05-18T05:07:28.203Z,26.68
2023-05-18T05:08:28.202Z,26.79
2023-05-18T05:09:28.204Z,25.20
2023-05-18T05:10:28.239Z,26.41
2023-05-18T05:11:28.159Z,25.68
2023-05-18T05:12:28.145Z,25.40
2023-05-18T05:13:28.138Z,26.10
2023-05-18T05:14:28.123Z,25.36
2023-05-18T05:15:28.182Z,25.62
2023-05-18T05:16:28.187Z,26.04
2023-05-18T05:17:28.129Z,26.20
2023-05-18T05:18:28.073Z,26.07
2023-05-18T05:19:28.175Z,25.00
2023-05-18T05:20:28.063Z,25.34
2023-05-18T05:21:28.046Z,25.54
2023-05-18T05:22:28.112Z,27.88
2023-05-18T05:23:28.146Z,25.16
2023-05-18T05:24:28.188Z,25.65
2023-05-18T05:25:28.313Z,27.08
2023-05-18T05:26:28.328Z,26.88
2023-05-18T05:27:28.339Z,25.00
2023-05-18T05:28:28.380Z,25.84
2023-05-18T05:29:28.417Z,25.28
2023-05-18T05:30:28.464Z,25.00
2023-05-18T05:31:28.524Z,25.60
2023-05-18T05:32:28.592Z,26.69
2023-05-18T05:33:28.626Z,25.00
2023-05-18T05:34:28.639Z,26.14
2023-05-18T05:35:29.983Z,25.00
2023-05-18T05:36:28.687Z,25.04
2023-05-18T05:37:28.674Z,24.84
2023-05-18T05:38:28.662Z,23.83
2023-05-18T05:39:28.653Z,23.64
2023-05-18T05:40:28.651Z,22.07
2023-05-18T05:41:30.009Z,25.00
2023-05-18T05:42:28.630Z,25.11
2023-05-18T05:43:28.630Z,24.85
2023-05-18T05:44:28.603Z,24.22
2023-05-18T05:45:28.871Z,21.45
2023-05-18T05:46:28.675Z,17.00
2023-05-18T05:47:28.592Z,25.00
2023-05-18T05:48:28.545Z,25.81
2023-05-18T05:49:28.563Z,26.42
2023-05-18T05:50:28.528Z,25.59
2023-05-18T05:51:28.513Z,25.31
2023-05-18T05:52:28.501Z,25.00
2023-05-18T05:53:28.494Z,26.32
2023-05-18T05:54:28.484Z,27.35
2023-05-18T05:55:28.610Z,25.86
2023-05-18T05:56:28.489Z,25.00
2023-05-18T05:57:28.458Z,25.00
2023-05-18T05:58:28.457Z,27.04
2023-05-18T05:59:28.435Z,25.68
2023-05-18T06:00:28.433Z,25.83
2023-05-18T06:01:29.273Z,25.00
2023-05-18T06:02:28.493Z,25.00
2023-05-18T06:03:28.480Z,25.52
2023-05-18T06:04:28.512Z,25.39
2023-05-18T06:05:28.698Z,25.35
2023-05-18T06:06:28.372Z,25.00
2023-05-18T06:07:28.357Z,26.09
2023-05-18T06:08:28.339Z,27.91
2023-05-18T06:09:28.342Z,25.00
2023-05-18T06:10:28.329Z,26.02
2023-05-18T06:11:28.302Z,26.81
2023-05-18T06:12:29.275Z,26.18
2023-05-18T06:13:28.264Z,26.83
2023-05-18T06:14:28.253Z,25.05
2023-05-18T06:15:28.476Z,26.84
2023-05-18T06:16:28.256Z,25.04
2023-05-18T06:17:28.253Z,26.00
2023-05-18T06:18:28.197Z,26.58
2023-05-18T06:19:28.184Z,26.26
2023-05-18T06:20:28.185Z,26.52
2023-05-18T06:21:28.200Z,25.13
2023-05-18T06:22:28.157Z,25.46
2023-05-18T06:23:28.135Z,25.00
2023-05-18T06:24:28.122Z,25.20
2023-05-18T06:25:28.163Z,26.46
2023-05-18T06:26:28.121Z,25.63
2023-05-18T06:27:28.089Z,26.87
2023-05-18T06:28:28.086Z,25.00
2023-05-18T06:29:28.074Z,25.45
2023-05-18T06:30:28.059Z,25.85
2023-05-18T06:31:30.061Z,25.59
2023-05-18T06:32:28.205Z,25.00
2023-05-18T06:33:28.009Z,25.00
2023-05-18T06:34:28.002Z,25.00
2023-05-18T06:35:28.015Z,25.84
2023-05-18T06:36:28.052Z,25.32
2023-05-18T06:37:27.976Z,25.00
2023-05-18T06:38:27.942Z,25.00
2023-05-18T06:39:27.919Z,25.00
2023-05-18T06:40:27.902Z,26.89
2023-05-18T06:41:27.884Z,25.75
2023-05-18T06:42:27.873Z,25.23
2023-05-18T06:43:27.855Z,26.60
2023-05-18T06:44:27.834Z,25.42
2023-05-18T06:45:27.866Z,28.19
2023-05-18T06:46:27.841Z,26.79
2023-05-18T06:47:27.808Z,25.91
2023-05-18T06:48:27.790Z,25.08
2023-05-18T06:49:27.753Z,25.13
2023-05-18T06:50:27.734Z,26.95
2023-05-18T06:51:27.713Z,30.89
2023-05-18T06:52:27.698Z,25.00
2023-05-18T06:53:27.707Z,28.52
2023-05-18T06:54:27.666Z,26.12
2023-05-18T06:55:27.643Z,25.00
2023-05-18T06:56:27.671Z,25.78
2023-05-18T06:57:27.718Z,25.99
2023-05-18T06:58:27.777Z,25.04
2023-05-18T06:59:27.824Z,25.45
2023-05-18T07:00:27.906Z,29.42
2023-05-18T07:01:28.012Z,32.16
2023-05-18T07:02:28.002Z,28.27
2023-05-18T07:03:28.064Z,26.69
2023-05-18T07:04:28.088Z,25.42
2023-05-18T07:05:28.214Z,25.00
2023-05-18T07:06:28.184Z,26.05
2023-05-18T07:07:28.274Z,25.55
2023-05-18T07:08:28.289Z,26.66
2023-05-18T07:09:28.387Z,25.00
2023-05-18T07:10:28.405Z,27.92
2023-05-18T07:11:29.845Z,29.58
2023-05-18T07:12:28.500Z,26.10
2023-05-18T07:13:28.549Z,27.99
2023-05-18T07:14:28.645Z,28.87
2023-05-18T07:15:28.842Z,27.97
2023-05-18T07:16:28.867Z,26.43
2023-05-18T07:17:28.771Z,25.00
2023-05-18T07:18:28.801Z,26.18
2023-05-18T07:19:28.945Z,27.18
2023-05-18T07:20:28.902Z,26.33
2023-05-18T07:21:28.992Z,27.81
2023-05-18T07:22:29.002Z,26.31
2023-05-18T07:23:29.107Z,29.18
2023-05-18T07:24:29.096Z,29.45
2023-05-18T07:25:29.304Z,27.92
2023-05-18T07:26:29.203Z,25.92
2023-05-18T07:27:29.270Z,26.97
2023-05-18T07:28:29.319Z,26.18
2023-05-18T07:29:29.373Z,25.15
2023-05-18T07:30:29.440Z,25.00
2023-05-18T07:31:29.561Z,25.62
2023-05-18T07:32:29.599Z,25.54
2023-05-18T07:33:29.604Z,25.00
2023-05-18T07:34:29.658Z,26.84
2023-05-18T07:35:29.985Z,25.57
2023-05-18T07:36:29.748Z,25.35
2023-05-18T07:37:29.781Z,26.43
2023-05-18T07:38:29.868Z,25.00
2023-05-18T07:39:29.903Z,26.31
2023-05-18T07:40:29.943Z,26.84
2023-05-18T07:41:29.999Z,25.97
2023-05-18T07:42:30.014Z,25.17
2023-05-18T07:43:30.052Z,25.45
2023-05-18T07:44:30.087Z,25.00
2023-05-18T07:45:30.652Z,26.48
2023-05-18T07:46:30.325Z,27.05
2023-05-18T07:47:30.271Z,25.00
2023-05-18T07:48:30.283Z,27.10
2023-05-18T07:49:30.334Z,25.77
2023-05-18T07:50:30.379Z,25.57
2023-05-18T07:51:30.419Z,27.89
2023-05-18T07:52:30.498Z,27.69
2023-05-18T07:53:30.533Z,25.00
2023-05-18T07:54:30.576Z,26.91
2023-05-18T07:55:30.939Z,25.00
2023-05-18T07:56:30.646Z,25.00
2023-05-18T07:57:30.705Z,25.79
2023-05-18T07:58:30.703Z,25.68
2023-05-18T07:59:30.755Z,27.08
2023-05-18T08:00:30.721Z,28.95
2023-05-18T08:01:30.743Z,25.00
2023-05-18T08:02:33.621Z,26.72
2023-05-18T08:03:30.827Z,26.84
2023-05-18T08:04:30.855Z,26.87
2023-05-18T08:05:31.081Z,25.68
2023-05-18T08:06:30.730Z,26.64
2023-05-18T08:07:30.732Z,25.66
2023-05-18T08:08:30.716Z,26.43
2023-05-18T08:09:30.713Z,27.18
2023-05-18T08:10:30.701Z,25.00
2023-05-18T08:11:30.700Z,26.71
2023-05-18T08:12:30.692Z,29.66
2023-05-18T08:13:33.342Z,27.01
2023-05-18T08:14:30.693Z,27.27
2023-05-18T08:15:30.929Z,27.70
2023-05-18T08:16:30.698Z,27.51
2023-05-18T08:17:30.720Z,29.13
2023-05-18T08:18:30.675Z,28.67
2023-05-18T08:19:30.699Z,26.70
2023-05-18T08:20:30.668Z,30.92
2023-05-18T08:21:30.674Z,29.97
2023-05-18T08:22:30.647Z,29.97
2023-05-18T08:23:30.647Z,28.17
2023-05-18T08:24:30.645Z,25.03
2023-05-18T08:25:30.894Z,27.96
2023-05-18T08:26:30.652Z,25.00
2023-05-18T08:27:30.655Z,27.02
2023-05-18T08:28:30.633Z,29.31
2023-05-18T08:29:30.667Z,27.62
2023-05-18T08:30:30.634Z,27.02
2023-05-18T08:31:30.647Z,27.03
2023-05-18T08:32:30.652Z,25.60
2023-05-18T08:33:30.615Z,27.16
2023-05-18T08:34:30.613Z,25.00
2023-05-18T08:35:30.841Z,26.08
2023-05-18T08:36:30.616Z,26.87
2023-05-18T08:37:30.600Z,26.82
2023-05-18T08:38:30.596Z,25.89
2023-05-18T08:39:30.594Z,26.54
2023-05-18T08:40:30.594Z,25.00
2023-05-18T08:41:30.588Z,26.78
2023-05-18T08:42:41.663Z,32.39
2023-05-18T08:43:30.579Z,32.55
2023-05-18T08:44:30.569Z,29.47
2023-05-18T08:45:30.885Z,30.39
2023-05-18T08:46:30.558Z,26.41
2023-05-18T08:47:30.562Z,24.63
2023-05-18T08:48:30.581Z,28.73
2023-05-18T08:49:30.523Z,26.24
2023-05-18T08:50:30.741Z,26.88
2023-05-18T08:51:30.569Z,32.86
2023-05-18T08:52:30.508Z,26.44
2023-05-18T08:53:30.501Z,27.52
2023-05-18T08:54:30.495Z,31.90
2023-05-18T08:55:30.765Z,25.32
2023-05-18T08:56:30.485Z,26.57
2023-05-18T08:57:30.481Z,26.86
2023-05-18T08:58:30.484Z,28.50
2023-05-18T08:59:30.471Z,25.54
2023-05-18T09:00:30.731Z,30.14
2023-05-18T09:01:30.533Z,26.37
2023-05-18T09:02:30.497Z,26.61
2023-05-18T09:03:30.473Z,28.08
2023-05-18T09:04:30.478Z,31.42
2023-05-18T09:05:30.777Z,27.57
2023-05-18T09:06:30.459Z,32.23
2023-05-18T09:07:30.460Z,29.29
2023-05-18T09:08:30.450Z,33.76
2023-05-18T09:09:30.474Z,33.06
2023-05-18T09:10:30.434Z,31.86
2023-05-18T09:11:30.452Z,28.72
2023-05-18T09:12:30.428Z,28.78
2023-05-18T09:13:30.421Z,27.27
2023-05-18T09:14:30.415Z,28.89
2023-05-18T09:15:30.646Z,28.20
2023-05-18T09:16:30.532Z,25.00
2023-05-18T09:17:30.446Z,27.40
2023-05-18T09:18:30.409Z,27.42
2023-05-18T09:19:30.405Z,27.08
2023-05-18T09:20:30.416Z,26.06
2023-05-18T09:21:30.418Z,28.03
2023-05-18T09:22:30.411Z,31.02
2023-05-18T09:23:30.413Z,28.70
2023-05-18T09:24:30.415Z,28.95
2023-05-18T09:25:30.637Z,31.44
2023-05-18T09:26:30.394Z,28.02
2023-05-18T09:27:30.390Z,30.33
2023-05-18T09:28:30.380Z,31.04
2023-05-18T09:29:32.875Z,28.46
2023-05-18T09:30:30.365Z,28.68
2023-05-18T09:31:30.401Z,29.23
2023-05-18T09:32:30.366Z,28.93
2023-05-18T09:33:30.513Z,29.41
2023-05-18T09:34:30.334Z,28.23
2023-05-18T09:35:30.642Z,28.72
2023-05-18T09:36:30.311Z,26.02
2023-05-18T09:37:30.314Z,28.29
2023-05-18T09:38:30.341Z,25.64
2023-05-18T09:39:30.316Z,26.89
2023-05-18T09:40:30.281Z,32.26
2023-05-18T09:41:30.264Z,33.23
2023-05-18T09:42:30.257Z,30.26
2023-05-18T09:43:30.246Z,31.21
2023-05-18T09:44:30.240Z,33.61
2023-05-18T09:45:31.013Z,29.24
2023-05-18T09:46:30.243Z,32.57
2023-05-18T09:47:30.272Z,33.94
2023-05-18T09:48:30.223Z,29.83
2023-05-18T09:49:30.244Z,30.13
2023-05-18T09:50:30.232Z,29.13
2023-05-18T09:51:30.212Z,32.64
2023-05-18T09:52:30.220Z,33.46
2023-05-18T09:53:30.215Z,31.99
2023-05-18T09:54:30.199Z,35.65
2023-05-18T09:55:30.514Z,33.21
2023-05-18T09:56:30.205Z,34.46
2023-05-18T09:57:30.246Z,33.52
2023-05-18T09:58:30.190Z,31.85
2023-05-18T09:59:30.196Z,30.59
2023-05-18T10:00:30.182Z,35.09
2023-05-18T10:01:30.308Z,32.08
2023-05-18T10:02:30.212Z,32.24
2023-05-18T10:03:30.177Z,31.20
2023-05-18T10:04:30.258Z,31.96
2023-05-18T10:05:32.517Z,31.44
2023-05-18T10:06:30.233Z,31.65
2023-05-18T10:07:30.224Z,32.32
2023-05-18T10:08:30.219Z,32.27
2023-05-18T10:09:30.209Z,32.25
2023-05-18T10:10:30.467Z,31.04
2023-05-18T10:11:30.202Z,32.68
2023-05-18T10:12:30.208Z,33.60
2023-05-18T10:13:30.201Z,34.44
2023-05-18T10:14:31.354Z,37.43
2023-05-18T10:15:30.487Z,38.07
2023-05-18T10:16:30.196Z,38.59
2023-05-18T10:17:30.208Z,38.15
2023-05-18T10:18:30.231Z,35.54
2023-05-18T10:19:30.263Z,36.68
2023-05-18T10:20:30.467Z,35.57
2023-05-18T10:21:30.309Z,35.16
2023-05-18T10:22:30.221Z,33.87
2023-05-18T10:23:30.243Z,35.37
2023-05-18T10:24:30.287Z,31.93
2023-05-18T10:25:30.323Z,33.05
2023-05-18T10:26:30.355Z,33.34
2023-05-18T10:27:30.406Z,32.33
2023-05-18T10:28:30.464Z,29.22
2023-05-18T10:29:30.478Z,27.33
2023-05-18T10:30:30.685Z,27.64
2023-05-18T10:31:30.568Z,27.76
2023-05-18T10:32:30.607Z,25.61
2023-05-18T10:33:30.668Z,28.38
2023-05-18T10:34:30.617Z,28.83
2023-05-18T10:35:30.638Z,25.63
2023-05-18T10:36:30.658Z,25.31
2023-05-18T10:37:30.845Z,26.59
2023-05-18T10:38:30.664Z,27.51
2023-05-18T10:39:30.696Z,26.15
2023-05-18T10:40:30.940Z,25.00
2023-05-18T10:41:30.738Z,26.11
2023-05-18T10:42:30.784Z,27.39
2023-05-18T10:43:30.811Z,26.36
2023-05-18T10:44:30.848Z,25.00
2023-05-18T10:45:30.874Z,29.64
2023-05-18T10:46:30.996Z,29.19
2023-05-18T10:47:31.266Z,29.54
2023-05-18T10:48:30.987Z,29.19
2023-05-18T10:49:30.935Z,28.02
2023-05-18T10:50:31.238Z,25.00
2023-05-18T10:51:30.972Z,27.23
2023-05-18T10:52:30.974Z,30.30
2023-05-18T10:53:31.042Z,25.90
2023-05-18T10:54:31.052Z,28.04
2023-05-18T10:55:31.097Z,31.88
2023-05-18T10:56:31.150Z,31.52
2023-05-18T10:57:31.178Z,27.82
2023-05-18T10:58:31.201Z,30.67
2023-05-18T10:59:31.246Z,27.00
2023-05-18T11:00:31.455Z,29.20
2023-05-18T11:01:31.355Z,26.60
2023-05-18T11:02:31.381Z,28.30
2023-05-18T11:03:31.360Z,30.19
2023-05-18T11:04:31.373Z,29.18
2023-05-18T11:05:31.378Z,29.34
2023-05-18T11:06:31.388Z,31.33
2023-05-18T11:07:31.393Z,28.14
2023-05-18T11:08:31.466Z,27.87
2023-05-18T11:09:31.567Z,30.86
2023-05-18T11:10:31.563Z,33.07
2023-05-18T11:11:31.454Z,33.37
2023-05-18T11:12:31.458Z,35.13
2023-05-18T11:13:31.494Z,32.55
2023-05-18T11:14:31.518Z,35.34
2023-05-18T11:15:31.483Z,35.33
2023-05-18T11:16:31.500Z,33.47
2023-05-18T11:17:31.487Z,32.67
2023-05-18T11:18:31.450Z,33.73
2023-05-18T11:19:31.441Z,34.26
2023-05-18T11:20:31.643Z,34.94
2023-05-18T11:21:31.458Z,35.63
2023-05-18T11:22:31.453Z,36.19
2023-05-18T11:23:31.438Z,35.61
2023-05-18T11:24:31.432Z,37.13
2023-05-18T11:25:31.457Z,39.64
2023-05-18T11:26:31.428Z,37.31
2023-05-18T11:27:31.429Z,37.89
2023-05-18T11:28:31.425Z,32.24
2023-05-18T11:29:31.419Z,33.78
2023-05-18T11:30:31.646Z,34.11
2023-05-18T11:31:31.461Z,34.60
2023-05-18T11:32:31.579Z,28.60
2023-05-18T11:33:31.486Z,30.61
2023-05-18T11:34:31.421Z,34.30
2023-05-18T11:35:31.425Z,30.93
2023-05-18T11:36:31.414Z,28.80
2023-05-18T11:37:31.417Z,28.17
2023-05-18T11:38:31.404Z,28.95
2023-05-18T11:39:31.403Z,28.16
2023-05-18T11:40:31.733Z,25.00
2023-05-18T11:41:31.457Z,29.25
2023-05-18T11:42:31.388Z,28.48
2023-05-18T11:43:31.384Z,27.97
2023-05-18T11:44:31.380Z,28.68
2023-05-18T11:45:31.367Z,26.90
2023-05-18T11:46:31.358Z,26.46
2023-05-18T11:47:31.423Z,26.94
2023-05-18T11:48:31.523Z,31.07
2023-05-18T11:49:31.339Z,26.92
2023-05-18T11:50:31.689Z,28.41
2023-05-18T11:51:31.368Z,27.55
2023-05-18T11:52:31.416Z,26.44
2023-05-18T11:53:31.451Z,29.60
2023-05-18T11:54:31.500Z,28.91
2023-05-18T11:55:31.559Z,32.30
2023-05-18T11:56:31.568Z,31.77
2023-05-18T11:57:31.616Z,29.62
2023-05-18T11:58:31.578Z,27.72
2023-05-18T11:59:31.582Z,26.16
2023-05-18T12:00:31.788Z,28.21
2023-05-18T12:01:31.576Z,26.46
2023-05-18T12:02:31.637Z,30.28
2023-05-18T12:03:31.724Z,32.66
2023-05-18T12:04:31.652Z,34.39
2023-05-18T12:05:31.601Z,30.93
2023-05-18T12:06:31.643Z,29.13
2023-05-18T12:07:31.584Z,28.68
2023-05-18T12:08:31.576Z,29.01
2023-05-18T12:09:31.582Z,26.80
2023-05-18T12:10:31.793Z,26.80
2023-05-18T12:11:31.578Z,25.53
2023-05-18T12:12:31.582Z,29.28
2023-05-18T12:13:31.623Z,25.15
2023-05-18T12:14:31.579Z,25.00
2023-05-18T12:15:31.629Z,31.18
2023-05-18T12:16:31.643Z,31.87
2023-05-18T12:17:31.686Z,32.01
2023-05-18T12:18:31.657Z,32.26
2023-05-18T12:19:31.665Z,30.75
2023-05-18T12:20:31.948Z,28.50
2023-05-18T12:21:31.674Z,31.33
2023-05-18T12:22:31.646Z,28.37
2023-05-18T12:23:31.653Z,27.81
2023-05-18T12:24:31.668Z,27.26
2023-05-18T12:25:31.900Z,26.55
2023-05-18T12:26:31.656Z,25.33
2023-05-18T12:27:31.715Z,31.70
2023-05-18T12:28:31.674Z,27.82
2023-05-18T12:29:31.718Z,30.81
2023-05-18T12:30:31.686Z,30.29
2023-05-18T12:31:31.765Z,29.55
2023-05-18T12:32:31.716Z,31.78
2023-05-18T12:33:31.690Z,29.35
2023-05-18T12:34:31.691Z,28.76
2023-05-18T12:35:32.135Z,31.39
2023-05-18T12:36:31.681Z,28.55
2023-05-18T12:37:41.661Z,30.56
2023-05-18T12:38:31.668Z,30.72
2023-05-18T12:39:31.650Z,31.37
2023-05-18T12:40:31.648Z,31.28
2023-05-18T12:41:31.642Z,26.54
2023-05-18T12:42:31.633Z,28.01
2023-05-18T12:43:31.629Z,27.11
2023-05-18T12:44:31.616Z,25.00
2023-05-18T12:45:32.100Z,25.60
2023-05-18T12:46:31.629Z,28.49
2023-05-18T12:47:31.705Z,25.00
2023-05-18T12:48:31.587Z,27.14
2023-05-18T12:49:31.587Z,29.82
2023-05-18T12:50:31.573Z,25.00
2023-05-18T12:51:31.573Z,25.15
2023-05-18T12:52:31.560Z,27.57